Time;durP1;ratioP1;P1;durP2;ratioP2;P2;SDS_P1;SDS_P2;PMS_P1;PMS_P2;Temp;Humidity;BMP_temperature;BMP_pressure;BME280_temperature;BME280_humidity;BME280_pressure;Samples;Min_cycle;Max_cycle;Signal;HPM_P1;HPM_P2
2023/01/05 00:01:14;;;;;;;4.88;1.52;;;22.00;61.20;;;;;;6059102;29;19966;-55
2023/01/05 00:04:16;;;;;;;5.45;1.77;;;22.00;60.90;;;;;;6059832;29;20455;-57
2023/01/05 00:07:18;;;;;;;5.32;1.60;;;21.80;60.80;;;;;;6042132;29;20076;-57
2023/01/05 00:23:30;;;;;;;3.63;1.60;;;21.70;60.50;;;;;;6057805;29;20083;-56
2023/01/05 00:26:31;;;;;;;2.00;0.75;;;22.10;60.90;;;;;;6058750;29;20502;-55
2023/01/05 00:29:33;;;;;;;;;;;21.70;60.70;;;;;;6058474;29;20526;-57
2023/01/05 00:32:34;;;;;;;;;;;21.80;60.90;;;;;;6058527;29;19924;-57
2023/01/05 00:35:37;;;;;;;2.95;1.33;;;22.00;61.20;;;;;;6057968;29;19931;-57
2023/01/05 00:38:39;;;;;;;4.45;1.25;;;22.00;60.60;;;;;;6057918;29;20044;-57
2023/01/05 00:41:41;;;;;;;4.18;1.13;;;22.10;60.80;;;;;;6058231;29;20100;-57
2023/01/05 00:44:42;;;;;;;;;;;22.10;60.80;;;;;;6058534;29;20463;-57
2023/01/05 00:47:44;;;;;;;;;;;22.10;60.90;;;;;;6058625;29;19975;-59
2023/01/05 00:50:48;;;;;;;2.38;0.98;;;22.00;61.10;;;;;;6058238;29;19924;-57
2023/01/05 00:53:50;;;;;;;3.60;1.30;;;22.00;60.80;;;;;;6057788;29;20045;-57
2023/01/05 00:56:51;;;;;;;;;;;22.10;60.90;;;;;;6057823;29;20045;-58
2023/01/05 00:59:53;;;;;;;2.97;1.15;;;21.80;61.00;;;;;;6057913;29;19923;-57
2023/01/05 01:02:54;;;;;;;;;;;21.60;60.60;;;;;;6057260;29;20045;-58
2023/01/05 01:05:58;;;;;;;3.45;0.90;;;22.00;61.20;;;;;;6057348;29;20019;-58
2023/01/05 01:08:59;;;;;;;2.28;0.95;;;21.90;60.80;;;;;;6041104;29;20045;-58
2023/01/05 01:12:01;;;;;;;4.55;1.08;;;21.40;60.60;;;;;;6057379;29;20055;-58
2023/01/05 01:15:03;;;;;;;1.98;1.05;;;21.90;61.00;;;;;;6058138;29;20044;-58
2023/01/05 01:18:05;;;;;;;2.95;1.13;;;22.00;61.00;;;;;;6058055;29;20041;-57
2023/01/05 01:21:08;;;;;;;4.13;1.80;;;21.80;61.00;;;;;;6057207;29;20502;-58
2023/01/05 01:24:15;;;;;;;4.20;1.42;;;21.90;61.00;;;;;;6041597;29;20059;-58
2023/01/05 01:27:17;;;;;;;5.43;1.50;;;22.00;61.10;;;;;;6057649;29;20053;-58
2023/01/05 01:30:18;;;;;;;;;;;21.90;61.10;;;;;;6058213;29;20109;-57
2023/01/05 01:33:20;;;;;;;5.07;1.65;;;21.80;61.20;;;;;;6058175;29;20383;-58
2023/01/05 01:36:22;;;;;;;;;;;21.60;61.10;;;;;;6058355;29;20045;-58
2023/01/05 01:39:23;;;;;;;4.30;1.42;;;21.90;61.40;;;;;;6057415;29;19924;-58
2023/01/05 01:42:30;;;;;;;6.80;1.90;;;22.00;61.20;;;;;;6042624;29;20113;-57
2023/01/05 01:45:33;;;;;;;6.20;2.13;;;21.90;61.20;;;;;;6057559;29;20131;-58
2023/01/05 01:48:36;;;;;;;6.03;2.08;;;21.90;61.40;;;;;;6058898;29;20041;-57
2023/01/05 01:51:43;;;;;;;6.63;1.88;;;21.90;61.30;;;;;;6058412;29;20052;-57
2023/01/05 01:54:45;;;;;;;7.60;2.40;;;21.70;61.10;;;;;;6057743;29;20045;-57
2023/01/05 01:57:47;;;;;;;6.68;2.35;;;22.00;61.40;;;;;;6057402;29;20049;-58
2023/01/05 02:00:49;;;;;;;7.03;1.95;;;21.70;61.30;;;;;;6057890;29;20410;-58
2023/01/05 02:03:50;;;;;;;;;;;22.00;61.60;;;;;;6058094;29;20532;-58
2023/01/05 02:06:52;;;;;;;5.55;2.20;;;21.60;61.60;;;;;;6056715;29;19927;-58
2023/01/05 02:09:54;;;;;;;7.05;2.33;;;22.00;61.60;;;;;;6061118;29;20049;-57
2023/01/05 02:13:06;;;;;;;6.68;2.28;;;22.00;61.60;;;;;;6059631;29;20069;-57
2023/01/05 02:16:18;;;;;;;6.72;2.45;;;21.90;61.40;;;;;;6060552;29;20053;-57
2023/01/05 02:19:44;;;;;;;6.70;2.20;;;21.90;61.40;;;;;;6062037;29;20049;-57
2023/01/05 02:23:24;;;;;;;6.00;1.85;;;21.80;61.30;;;;;;6063593;29;20523;-57
2023/01/05 02:26:45;;;;;;;5.45;1.98;;;21.90;61.40;;;;;;6063443;29;20038;-57
2023/01/05 02:30:11;;;;;;;4.85;2.10;;;21.70;61.20;;;;;;6063754;29;20049;-57
2023/01/05 02:33:24;;;;;;;5.65;1.85;;;21.90;61.30;;;;;;6049993;29;20132;-57
2023/01/05 02:36:33;;;;;;;5.03;2.05;;;22.00;61.30;;;;;;6063364;29;20086;-57
2023/01/05 02:39:45;;;;;;;3.92;1.40;;;21.80;61.20;;;;;;6048256;29;20049;-57
2023/01/05 02:42:51;;;;;;;5.70;1.83;;;21.80;61.10;;;;;;6046649;29;20092;-57
2023/01/05 02:45:54;;;;;;;4.68;1.40;;;22.00;61.30;;;;;;6062903;29;20072;-57
2023/01/05 02:48:59;;;;;;;3.17;1.02;;;21.90;61.20;;;;;;6061943;29;20052;-57
2023/01/05 02:52:02;;;;;;;3.42;1.42;;;22.00;61.20;;;;;;6062513;29;20112;-57
2023/01/05 02:55:10;;;;;;;2.85;1.30;;;21.90;61.10;;;;;;6062943;29;20465;-57
2023/01/05 02:58:16;;;;;;;3.88;1.20;;;21.70;61.00;;;;;;6062573;29;20406;-57
2023/01/05 03:01:22;;;;;;;3.17;1.00;;;21.90;61.00;;;;;;6062381;29;20578;-57
2023/01/05 03:04:33;;;;;;;4.00;1.20;;;21.90;61.00;;;;;;6063293;29;20049;-57
2023/01/05 03:07:41;;;;;;;3.15;1.20;;;21.90;60.90;;;;;;6062936;29;20140;-57
2023/01/05 03:14:17;;;;;;;2.25;1.10;;;21.90;60.90;;;;;;6048142;29;20049;-57
2023/01/05 03:17:24;;;;;;;1.85;0.80;;;21.80;60.70;;;;;;6063424;29;20053;-57
2023/01/05 03:20:30;;;;;;;1.33;0.52;;;22.00;60.70;;;;;;6046402;29;20049;-57
2023/01/05 03:36:49;;;;;;;1.33;0.52;;;21.90;60.40;;;;;;6065659;29;20081;-57
2023/01/05 03:39:51;;;;;;;1.55;0.70;;;21.90;60.40;;;;;;6066192;29;20073;-57
2023/01/05 03:42:54;;;;;;;2.08;0.60;;;21.70;60.40;;;;;;6065670;29;20061;-57
2023/01/05 03:45:57;;;;;;;1.77;0.70;;;21.80;60.20;;;;;;6064529;29;20053;-57
2023/01/05 03:49:01;;;;;;;1.52;0.52;;;21.90;60.40;;;;;;6061657;29;20049;-57
2023/01/05 03:52:04;;;;;;;1.10;0.80;;;22.00;60.40;;;;;;6060954;29;20100;-58
2023/01/05 03:55:06;;;;;;;0.77;0.40;;;21.90;60.10;;;;;;6063562;29;20048;-57
2023/01/05 03:58:08;;;;;;;1.48;0.52;;;21.80;60.00;;;;;;6048958;29;20045;-57
2023/01/05 04:01:10;;;;;;;1.25;0.57;;;21.70;60.10;;;;;;6065846;29;20458;-57
2023/01/05 04:04:13;;;;;;;0.82;0.47;;;21.90;60.10;;;;;;6048935;29;20513;-58
2023/01/05 04:07:15;;;;;;;0.57;0.30;;;21.80;60.10;;;;;;6065736;29;20053;-58
2023/01/05 04:10:17;;;;;;;1.15;0.32;;;21.80;60.00;;;;;;6065231;29;20128;-57
2023/01/05 04:13:18;;;;;;;1.20;0.50;;;21.90;60.10;;;;;;6065779;29;20534;-57
2023/01/05 04:16:20;;;;;;;0.50;0.20;;;21.90;60.00;;;;;;6065807;29;20045;-57
2023/01/05 04:19:24;;;;;;;1.02;0.40;;;21.50;59.70;;;;;;6064793;29;20052;-57
2023/01/05 04:22:28;;;;;;;0.47;0.20;;;21.90;59.90;;;;;;6065046;29;20104;-57
2023/01/05 04:25:30;;;;;;;0.43;0.20;;;21.70;59.80;;;;;;6065290;29;20033;-57
2023/01/05 04:28:41;;;;;;;0.60;0.30;;;21.90;59.90;;;;;;6064265;29;20124;-57
2023/01/05 04:31:45;;;;;;;0.50;0.40;;;21.90;60.00;;;;;;6063954;29;20455;-57
2023/01/05 04:34:47;;;;;;;0.73;0.45;;;21.90;59.80;;;;;;6064512;29;20080;-57
2023/01/05 04:37:50;;;;;;;0.95;0.30;;;21.80;59.80;;;;;;6064953;29;20064;-57
2023/01/05 04:40:52;;;;;;;0.20;0.10;;;21.90;59.80;;;;;;6064696;29;20076;-57
2023/01/05 04:43:58;;;;;;;0.85;0.20;;;21.90;59.70;;;;;;6064400;29;20049;-57
2023/01/05 04:47:00;;;;;;;0.38;0.28;;;21.90;59.70;;;;;;6064538;29;20052;-57
2023/01/05 04:50:02;;;;;;;0.40;0.30;;;21.60;59.50;;;;;;6065887;29;20132;-57
2023/01/05 04:53:04;;;;;;;0.25;0.20;;;21.80;59.50;;;;;;6065716;29;20045;-57
2023/01/05 04:56:09;;;;;;;1.05;0.45;;;21.90;59.60;;;;;;6065585;29;20045;-57
2023/01/05 04:59:15;;;;;;;0.43;0.20;;;21.50;59.30;;;;;;6065466;29;20057;-57
2023/01/05 05:02:18;;;;;;;0.20;0.20;;;21.80;59.50;;;;;;6048188;29;20053;-57
2023/01/05 05:05:19;;;;;;;0.30;0.30;;;21.80;59.50;;;;;;6065896;29;20061;-57
2023/01/05 05:08:25;;;;;;;0.30;0.20;;;21.80;59.50;;;;;;6065387;29;20075;-57
2023/01/05 05:11:27;;;;;;;0.80;0.32;;;21.80;59.50;;;;;;6065440;29;20053;-57
2023/01/05 05:14:29;;;;;;;0.35;0.20;;;21.90;60.10;;;;;;6065670;29;20045;-57
2023/01/05 05:17:34;;;;;;;0.40;0.20;;;21.80;59.30;;;;;;6066038;29;20052;-57
2023/01/05 05:20:39;;;;;;;1.38;0.40;;;21.80;59.30;;;;;;6064998;29;20506;-57
2023/01/05 05:23:41;;;;;;;0.32;0.17;;;21.80;59.10;;;;;;6049013;29;20053;-57
2023/01/05 05:26:42;;;;;;;0.77;0.55;;;21.90;59.20;;;;;;6064962;29;20056;-57
2023/01/05 05:29:45;;;;;;;0.52;0.35;;;21.90;59.30;;;;;;6064503;29;20104;-57
2023/01/05 05:32:46;;;;;;;0.40;0.30;;;21.50;58.90;;;;;;6064683;29;20049;-57
2023/01/05 05:35:48;;;;;;;;;;;21.80;58.80;;;;;;6064887;29;20045;-57
2023/01/05 05:38:50;;;;;;;0.30;0.20;;;21.70;59.20;;;;;;6065499;29;19927;-57
2023/01/05 05:41:52;;;;;;;1.52;0.40;;;21.80;58.90;;;;;;6065192;29;20057;-57
2023/01/05 05:44:53;;;;;;;0.50;0.30;;;21.70;59.00;;;;;;6065379;29;20048;-57
2023/01/05 05:47:54;;;;;;;;;;;21.50;58.90;;;;;;6065769;29;20053;-57
2023/01/05 05:50:56;;;;;;;1.35;0.43;;;21.50;59.00;;;;;;6064841;29;19931;-57
2023/01/05 05:53:58;;;;;;;;;;;21.80;59.00;;;;;;6065337;29;20494;-57
2023/01/05 05:56:59;;;;;;;;;;;21.40;59.00;;;;;;6062330;29;19959;-58
2023/01/05 06:00:01;;;;;;;0.85;0.40;;;21.60;59.20;;;;;;6062364;29;19996;-58
2023/01/05 06:03:02;;;;;;;0.75;0.40;;;21.50;58.90;;;;;;6062951;29;20049;-58
2023/01/05 06:06:04;;;;;;;1.30;0.50;;;21.80;59.60;;;;;;6061626;29;20071;-58
2023/01/05 06:09:06;;;;;;;1.38;0.65;;;21.60;58.70;;;;;;6043718;29;20045;-57
2023/01/05 06:12:08;;;;;;;1.48;0.50;;;21.70;58.70;;;;;;6058581;29;20041;-58
2023/01/05 06:15:09;;;;;;;;;;;21.80;58.90;;;;;;6058676;29;20526;-58
2023/01/05 06:18:11;;;;;;;1.30;0.60;;;21.80;59.00;;;;;;6060058;29;19924;-58
2023/01/05 06:21:12;;;;;;;;;;;21.80;58.90;;;;;;6061337;29;20056;-57
2023/01/05 06:24:14;;;;;;;2.45;0.40;;;21.80;59.00;;;;;;6060831;29;19924;-58
2023/01/05 06:27:15;;;;;;;1.58;0.65;;;21.70;58.70;;;;;;6061748;29;20101;-57
2023/01/05 06:30:17;;;;;;;;;;;21.80;58.60;;;;;;6060688;29;20056;-57
2023/01/05 06:33:18;;;;;;;2.22;0.70;;;21.40;58.70;;;;;;6060141;29;19927;-57
2023/01/05 06:36:20;;;;;;;;;;;21.60;58.50;;;;;;6061297;29;20061;-57
2023/01/05 06:39:22;;;;;;;0.90;0.50;;;21.90;59.30;;;;;;6062467;29;20420;-57
2023/01/05 06:42:23;;;;;;;1.90;0.60;;;21.60;58.60;;;;;;6063058;29;20041;-57
2023/01/05 06:45:25;;;;;;;1.15;0.70;;;21.40;58.40;;;;;;6062773;29;20049;-57
2023/01/05 06:48:26;;;;;;;1.50;0.55;;;21.50;58.30;;;;;;6062861;29;20055;-57
2023/01/05 06:51:28;;;;;;;;;;;21.80;58.50;;;;;;6060573;29;20045;-57
2023/01/05 06:54:30;;;;;;;1.52;0.40;;;21.80;58.80;;;;;;6060577;29;19935;-57
2023/01/05 06:57:31;;;;;;;0.73;0.38;;;21.70;58.50;;;;;;6059549;29;20045;-57
2023/01/05 07:00:33;;;;;;;0.90;0.35;;;21.70;58.30;;;;;;6065932;29;20049;-57
2023/01/05 07:03:34;;;;;;;0.73;0.30;;;21.30;58.10;;;;;;6067119;29;20120;-57
2023/01/05 07:06:36;;;;;;;;;;;21.70;58.00;;;;;;6068509;29;20051;-57
2023/01/05 07:09:38;;;;;;;1.58;0.40;;;21.30;58.20;;;;;;6071076;29;19931;-57
2023/01/05 07:12:39;;;;;;;1.17;0.38;;;21.70;58.00;;;;;;6070076;29;20064;-57
2023/01/05 07:15:40;;;;;;;;;;;21.70;58.10;;;;;;6071100;29;20049;-56
2023/01/05 07:18:42;;;;;;;0.73;0.30;;;21.60;58.30;;;;;;6077915;29;19992;-56
2023/01/05 07:21:43;;;;;;;;;;;21.70;58.10;;;;;;6065447;29;20062;-57
2023/01/05 07:24:45;;;;;;;0.80;0.30;;;21.70;58.30;;;;;;6062518;29;19924;-57
2023/01/05 07:27:50;;;;;;;0.55;0.40;;;21.80;58.20;;;;;;6061511;29;20498;-57
2023/01/05 07:30:52;;;;;;;0.68;0.50;;;21.70;57.80;;;;;;6043618;29;20076;-57
2023/01/05 07:33:53;;;;;;;1.10;0.50;;;21.40;57.80;;;;;;6059088;29;20076;-57
2023/01/05 07:36:55;;;;;;;0.63;0.50;;;21.70;57.80;;;;;;6059146;29;20052;-55
2023/01/05 07:39:57;;;;;;;1.83;0.60;;;21.70;57.80;;;;;;6059699;29;20100;-57
2023/01/05 07:42:58;;;;;;;0.88;0.43;;;21.80;57.70;;;;;;6060189;29;20486;-57
2023/01/05 07:46:00;;;;;;;;;;;21.40;57.50;;;;;;6060573;29;20110;-57
2023/01/05 07:49:03;;;;;;;1.20;0.50;;;21.40;57.60;;;;;;6043699;29;19923;-55
2023/01/05 07:52:05;;;;;;;0.95;0.57;;;21.50;57.40;;;;;;6061367;29;20045;-57
2023/01/05 07:55:08;;;;;;;1.75;0.43;;;21.60;57.40;;;;;;6060972;29;20040;-56
2023/01/05 07:58:09;;;;;;;1.40;0.60;;;21.70;57.40;;;;;;6065065;29;20049;-56
2023/01/05 08:01:11;;;;;;;;;;;21.80;57.50;;;;;;6066920;29;20056;-55
2023/01/05 08:04:13;;;;;;;0.93;0.40;;;21.90;57.80;;;;;;6046298;29;19928;-57
2023/01/05 08:07:15;;;;;;;;;;;21.80;57.50;;;;;;6064895;29;20510;-56
2023/01/05 08:16:49;;;;;;;3.28;0.65;;;21.70;57.50;;;;;;6042721;29;20045;-56
2023/01/05 08:19:51;;;;;;;1.63;0.55;;;21.80;57.60;;;;;;6058601;29;20053;-56
2023/01/05 08:22:53;;;;;;;2.00;0.50;;;21.60;57.60;;;;;;6058582;29;20045;-58
2023/01/05 08:25:55;;;;;;;1.25;0.40;;;21.90;57.80;;;;;;6058097;29;20616;-57
2023/01/05 08:28:57;;;;;;;3.88;0.90;;;21.80;57.70;;;;;;6059524;29;20072;-57
2023/01/05 08:31:59;;;;;;;3.28;0.50;;;21.40;57.60;;;;;;6063622;29;20048;-52
2023/01/05 08:35:00;;;;;;;0.68;0.40;;;21.80;58.00;;;;;;6073888;29;20470;-58
2023/01/05 08:38:07;;;;;;;;;;;21.90;57.90;;;;;;6065526;29;20040;-58
2023/01/05 08:41:09;;;;;;;2.03;0.50;;;21.90;56.80;;;;;;6197163;23;19946;-52
2023/01/05 08:44:12;;;;;;;0.52;0.28;;;22.00;57.80;;;;;;6142109;23;20115;-55
2023/01/05 08:47:14;;;;;;;0.45;0.30;;;21.80;57.20;;;;;;6044375;29;20041;-55
2023/01/05 08:50:15;;;;;;;;;;;22.10;57.30;;;;;;6060596;29;20045;-55
2023/01/05 08:53:17;;;;;;;0.80;0.30;;;22.30;57.50;;;;;;6068659;29;19924;-57
2023/01/05 08:56:19;;;;;;;;;;;22.10;57.40;;;;;;6070443;29;20475;-55
2023/01/05 08:59:21;;;;;;;1.40;0.40;;;22.30;57.40;;;;;;6072487;29;19928;-56
2023/01/05 09:02:23;;;;;;;1.02;0.40;;;22.10;57.00;;;;;;6066753;29;20097;-53
2023/01/05 09:05:27;;;;;;;0.98;0.25;;;22.30;57.20;;;;;;6079421;29;20044;-54
2023/01/05 09:08:28;;;;;;;;;;;22.30;57.10;;;;;;6073383;29;20418;-52
2023/01/05 09:11:30;;;;;;;0.57;0.20;;;22.50;57.40;;;;;;6062599;29;19935;-56
2023/01/05 09:14:32;;;;;;;2.58;0.77;;;22.20;56.90;;;;;;6068536;29;20085;-57
2023/01/05 09:17:35;;;;;;;;;;;22.40;57.10;;;;;;6073030;29;20053;-56
2023/01/05 09:20:37;;;;;;;0.65;0.22;;;22.00;57.00;;;;;;6069917;29;19924;-57
2023/01/05 09:23:42;;;;;;;0.38;0.20;;;22.30;57.10;;;;;;6058592;29;20544;-56
2023/01/05 09:26:44;;;;;;;0.60;0.20;;;23.30;65.80;;;;;;6056571;29;20056;-57
2023/01/05 09:29:45;;;;;;;0.88;0.35;;;22.40;65.30;;;;;;6056749;29;20045;-58
2023/01/05 09:32:52;;;;;;;1.70;0.35;;;22.30;65.00;;;;;;6056630;29;20506;-58
2023/01/05 09:35:54;;;;;;;;;;;22.30;65.20;;;;;;6057325;29;20049;-57
2023/01/05 09:38:55;;;;;;;0.68;0.43;;;22.40;65.20;;;;;;6057251;29;19923;-57
2023/01/05 09:42:01;;;;;;;4.97;0.60;;;22.30;64.90;;;;;;6056875;29;20127;-56
2023/01/05 09:45:06;;;;;;;2.05;0.38;;;22.30;64.60;;;;;;6057110;29;20048;-56
2023/01/05 09:48:11;;;;;;;2.90;0.65;;;22.40;64.60;;;;;;6057114;29;20066;-58
2023/01/05 09:51:13;;;;;;;0.70;0.30;;;22.50;64.50;;;;;;6057265;29;20122;-56
2023/01/05 09:54:17;;;;;;;1.35;0.40;;;22.60;64.60;;;;;;6056143;29;20085;-57
2023/01/05 09:57:21;;;;;;;0.60;0.30;;;22.50;64.40;;;;;;6056772;29;20445;-56
2023/01/05 10:00:25;;;;;;;0.55;0.40;;;22.30;64.10;;;;;;6040205;29;20041;-58
2023/01/05 10:03:27;;;;;;;0.80;0.43;;;22.50;64.10;;;;;;6056825;29;20378;-58
2023/01/05 10:06:58;;;;;;;1.23;0.52;;;22.50;64.10;;;;;;6043301;29;20042;-59
2023/01/05 10:10:05;;;;;;;0.90;0.40;;;22.30;63.70;;;;;;6040009;29;20494;-58
2023/01/05 10:13:14;;;;;;;0.38;0.20;;;22.50;63.30;;;;;;6039670;29;20048;-59
2023/01/05 10:16:17;;;;;;;2.92;0.50;;;22.50;63.00;;;;;;6065399;29;20037;-56
2023/01/05 10:19:19;;;;;;;2.15;0.43;;;22.50;62.70;;;;;;6058367;29;20049;-59
2023/01/05 10:22:37;;;;;;;2.28;0.55;;;22.50;62.20;;;;;;6059902;29;20502;-57
2023/01/05 10:25:46;;;;;;;0.80;0.30;;;22.50;62.20;;;;;;6040800;29;20501;-57
2023/01/05 10:28:54;;;;;;;1.25;0.40;;;22.60;62.00;;;;;;6039490;29;20041;-59
2023/01/05 10:32:10;;;;;;;0.63;0.30;;;22.70;61.90;;;;;;6056296;29;20033;-56
2023/01/05 10:35:30;;;;;;;0.20;0.10;;;22.70;61.80;;;;;;6063036;29;20049;-59
2023/01/05 10:38:58;;;;;;;0.95;0.40;;;22.80;61.60;;;;;;6046950;29;20041;-58
2023/01/05 10:42:05;;;;;;;0.65;0.45;;;22.80;61.60;;;;;;6062277;29;20041;-58
2023/01/05 10:45:09;;;;;;;1.13;0.30;;;22.70;61.60;;;;;;6043973;29;20056;-58
2023/01/05 10:48:13;;;;;;;0.93;0.57;;;22.70;61.60;;;;;;6044849;29;20049;-59
2023/01/05 10:51:14;;;;;;;0.70;0.40;;;22.70;61.40;;;;;;6043141;29;20057;-58
2023/01/05 10:54:27;;;;;;;;;;;22.60;61.50;;;;;;6061281;29;20092;-59
2023/01/05 10:57:36;;;;;;;0.98;0.38;;;22.90;61.80;;;;;;6060341;29;19960;-59
2023/01/05 11:00:41;;;;;;;1.00;0.28;;;22.60;61.30;;;;;;6065876;29;20048;-58
2023/01/05 11:03:46;;;;;;;2.35;0.35;;;22.40;61.20;;;;;;6062696;29;20071;-61
2023/01/05 11:07:08;;;;;;;1.15;0.30;;;22.60;61.20;;;;;;6045326;29;20044;-61
2023/01/05 11:10:20;;;;;;;0.35;0.30;;;22.60;61.30;;;;;;6060058;29;20097;-60
2023/01/05 11:13:31;;;;;;;0.98;0.25;;;22.50;60.90;;;;;;6043003;29;20097;-60
2023/01/05 11:16:35;;;;;;;0.77;0.20;;;22.80;60.90;;;;;;6042626;29;20480;-58
2023/01/05 11:19:43;;;;;;;0.55;0.20;;;22.70;60.70;;;;;;6060383;29;20106;-58
2023/01/05 11:22:47;;;;;;;0.90;0.50;;;22.50;60.40;;;;;;6059573;29;20402;-58
2023/01/05 11:25:48;;;;;;;0.88;0.40;;;22.60;60.60;;;;;;6063457;29;20040;-58
2023/01/05 11:28:56;;;;;;;;;;;22.70;60.40;;;;;;6062322;29;20385;-55
2023/01/05 11:42:52;;;;;;;0.50;0.15;;;22.90;57.90;;;;;;7203658;23;20057;-57
2023/01/05 11:59:29;;;;;;;0.75;0.30;;;22.60;57.90;;;;;;6340167;23;20049;-57
2023/01/05 12:06:11;;;;;;;0.10;0.10;;;22.80;57.80;;;;;;7221450;23;20048;-56
2023/01/05 12:12:50;;;;;;;0.50;0.20;;;22.50;57.50;;;;;;6227569;23;20033;-57
2023/01/05 12:23:21;;;;;;;0.63;0.40;;;22.60;59.50;;;;;;6201231;23;20053;-60
2023/01/05 12:26:26;;;;;;;0.28;0.20;;;22.50;59.50;;;;;;6081562;29;20124;-59
2023/01/05 12:29:51;;;;;;;3.10;0.75;;;22.40;59.40;;;;;;6064886;29;20394;-61
2023/01/05 12:33:28;;;;;;;0.32;0.30;;;22.50;59.70;;;;;;6067737;29;20044;-59
2023/01/05 12:37:05;;;;;;;0.95;0.30;;;22.30;59.60;;;;;;6044034;29;20101;-59
2023/01/05 12:40:27;;;;;;;2.10;0.30;;;22.40;59.80;;;;;;6057686;29;20041;-59
2023/01/05 12:43:38;;;;;;;1.02;0.20;;;22.60;59.80;;;;;;6058146;29;20101;-60
2023/01/05 12:46:52;;;;;;;0.30;0.30;;;22.60;59.60;;;;;;6058838;29;20052;-60
2023/01/05 12:49:59;;;;;;;3.53;0.35;;;22.50;59.50;;;;;;6063444;29;20045;-59
2023/01/05 12:53:17;;;;;;;0.47;0.25;;;22.60;59.50;;;;;;6058504;29;20053;-58
2023/01/05 12:56:24;;;;;;;1.13;0.30;;;22.80;59.40;;;;;;6057849;29;20453;-57
2023/01/05 12:59:33;;;;;;;1.10;0.30;;;22.80;59.30;;;;;;6041347;29;20079;-59
2023/01/05 13:02:37;;;;;;;0.32;0.20;;;22.80;59.20;;;;;;6041107;29;20128;-60
2023/01/05 13:05:43;;;;;;;0.28;0.20;;;22.80;59.10;;;;;;6057419;29;20148;-57
2023/01/05 13:08:52;;;;;;;1.48;0.88;;;22.80;59.10;;;;;;6040634;29;20076;-59
2023/01/05 13:25:58;;;;;;;0.80;0.20;;;22.80;56.40;;;;;;6402187;23;20041;-49
2023/01/05 14:27:11;;;;;;;0.80;0.20;;;23.10;53.50;;;;;;7435325;23;20023;31
2023/01/05 14:30:20;;;;;;;1.10;0.30;;;23.10;53.50;;;;;;6058650;29;20251;-48
2023/01/05 14:33:22;;;;;;;0.52;0.20;;;23.20;55.60;;;;;;6062314;29;20041;-50
2023/01/05 15:04:22;;;;;;;0.65;0.40;;;23.20;51.40;;;;;;6084973;29;20251;-51
2023/01/05 15:11:13;;;;;;;1.70;0.40;;;23.30;51.20;;;;;;6629499;23;20033;-50
2023/01/05 15:14:38;;;;;;;1.20;0.50;;;23.30;53.20;;;;;;6207061;23;20049;-47
2023/01/05 15:17:56;;;;;;;0.50;0.30;;;23.20;53.20;;;;;;6086193;29;20045;-49
2023/01/05 15:21:15;;;;;;;0.43;0.30;;;23.20;53.00;;;;;;6309345;23;20037;-45
2023/01/05 15:24:41;;;;;;;0.45;0.28;;;23.00;52.90;;;;;;6089230;29;20037;-46
2023/01/05 15:28:05;;;;;;;1.35;0.30;;;23.20;53.00;;;;;;6089547;29;20056;-49
2023/01/05 15:31:27;;;;;;;0.20;0.10;;;23.20;52.90;;;;;;6076857;29;20037;-49
2023/01/05 15:34:37;;;;;;;0.20;0.20;;;23.20;52.90;;;;;;6089987;29;20036;-45
2023/01/05 15:37:40;;;;;;;0.63;0.22;;;23.20;52.80;;;;;;6089954;29;20033;-48
2023/01/05 15:40:41;;;;;;;1.00;0.32;;;23.20;52.70;;;;;;6074026;29;20044;-47
2023/01/05 15:43:43;;;;;;;0.20;0.20;;;23.30;52.80;;;;;;6090106;29;20030;-49
2023/01/05 15:46:46;;;;;;;1.70;0.20;;;23.20;52.70;;;;;;6090113;29;20032;-51
2023/01/05 15:49:48;;;;;;;1.00;0.30;;;23.30;52.60;;;;;;6074188;29;20061;-51
2023/01/05 15:52:53;;;;;;;1.13;0.40;;;23.00;52.40;;;;;;6074146;29;20044;-48
2023/01/05 15:55:56;;;;;;;0.65;0.32;;;23.20;52.30;;;;;;6089646;29;20061;-46
2023/01/05 15:58:58;;;;;;;1.25;0.20;;;23.30;52.40;;;;;;6089988;29;20033;-48
2023/01/05 16:02:00;;;;;;;1.20;0.30;;;23.30;52.40;;;;;;6089797;29;20037;-51
2023/01/05 16:05:12;;;;;;;0.85;0.38;;;23.30;52.50;;;;;;6089549;29;20036;-45
2023/01/05 16:08:15;;;;;;;2.35;0.30;;;23.10;52.10;;;;;;6074027;29;20032;-50
2023/01/05 16:11:25;;;;;;;1.13;0.22;;;23.20;52.10;;;;;;6089322;29;20040;-51
2023/01/05 16:14:31;;;;;;;0.65;0.20;;;23.10;60.10;;;;;;6089577;29;20085;-49
2023/01/05 16:31:34;;;;;;;0.40;0.20;;;23.20;57.80;;;;;;6774008;23;20066;-50
2023/01/05 16:34:36;;;;;;;0.30;0.20;;;23.20;60.00;;;;;;6090035;29;20032;-50
2023/01/05 16:37:37;;;;;;;;;;;23.20;60.30;;;;;;6190986;23;20030;-54
2023/01/05 16:40:53;;;;;;;;;;;23.10;60.50;;;;;;6090638;29;19912;-54
2023/01/05 16:43:56;;;;;;;0.50;0.20;;;23.50;60.90;;;;;;6090247;29;19911;-49
2023/01/05 16:47:07;;;;;;;0.20;0.20;;;23.00;60.60;;;;;;6074423;29;20017;-53
2023/01/05 16:50:38;;;;;;;0.52;0.20;;;23.20;60.80;;;;;;6337988;23;20033;-51
2023/01/05 16:53:42;;;;;;;0.55;0.20;;;23.00;60.80;;;;;;6075562;29;20047;-48
2023/01/05 16:56:50;;;;;;;0.50;0.20;;;23.10;61.00;;;;;;6087258;29;20041;-52
2023/01/05 16:59:51;;;;;;;0.43;0.32;;;23.30;61.30;;;;;;6070952;29;20073;-48
2023/01/05 17:02:53;;;;;;;;;;;23.00;61.80;;;;;;6087779;29;20032;-47
2023/01/05 17:05:56;;;;;;;0.15;0.15;;;23.20;62.10;;;;;;6133422;23;19908;-45
2023/01/05 17:12:29;;;;;;;1.45;0.32;;;23.20;61.40;;;;;;6313902;23;20061;-50
